sensor_id;sensor_type;location;lat;lon;timestamp;pressure;altitude;pressure_sealevel;temperature;humidity
68859;BME280;55864;49.238;8.092;2022-09-12T00:00:30;99552.81;;;15.18;80.95
68859;BME280;55864;49.238;8.092;2022-09-12T00:02:30;99553.13;;;15.15;80.73
68859;BME280;55864;49.238;8.092;2022-09-12T00:04:31;99552.66;;;15.11;80.86
68859;BME280;55864;49.238;8.092;2022-09-12T00:06:33;99555.28;;;15.11;81.12
68859;BME280;55864;49.238;8.092;2022-09-12T00:08:35;99553.97;;;15.15;81.11
68859;BME280;55864;49.238;8.092;2022-09-12T00:10:37;99547.00;;;15.14;81.34
68859;BME280;55864;49.238;8.092;2022-09-12T00:12:39;99544.88;;;15.09;81.16
68859;BME280;55864;49.238;8.092;2022-09-12T00:14:40;99543.22;;;15.08;81.18
68859;BME280;55864;49.238;8.092;2022-09-12T00:16:41;99546.03;;;15.07;81.56
68859;BME280;55864;49.238;8.092;2022-09-12T00:18:42;99539.59;;;15.01;81.28
68859;BME280;55864;49.238;8.092;2022-09-12T00:20:44;99541.91;;;15.04;81.38
68859;BME280;55864;49.238;8.092;2022-09-12T00:22:44;99537.44;;;15.05;81.16
68859;BME280;55864;49.238;8.092;2022-09-12T00:24:45;99532.00;;;14.98;81.43
68859;BME280;55864;49.238;8.092;2022-09-12T00:26:45;99540.44;;;14.94;81.12
68859;BME280;55864;49.238;8.092;2022-09-12T00:28:47;99531.34;;;14.96;81.33
68859;BME280;55864;49.238;8.092;2022-09-12T00:30:48;99536.81;;;14.95;81.52
68859;BME280;55864;49.238;8.092;2022-09-12T00:32:49;99531.84;;;14.92;81.47
68859;BME280;55864;49.238;8.092;2022-09-12T00:34:49;99537.31;;;14.90;81.46
68859;BME280;55864;49.238;8.092;2022-09-12T00:36:50;99529.38;;;14.90;81.17
68859;BME280;55864;49.238;8.092;2022-09-12T00:38:51;99525.06;;;14.89;81.29
68859;BME280;55864;49.238;8.092;2022-09-12T00:40:52;99526.06;;;14.88;81.66
68859;BME280;55864;49.238;8.092;2022-09-12T00:42:53;99532.03;;;14.90;81.97
68859;BME280;55864;49.238;8.092;2022-09-12T00:44:55;99526.25;;;14.95;81.16
68859;BME280;55864;49.238;8.092;2022-09-12T00:46:57;99525.59;;;14.69;80.75
68859;BME280;55864;49.238;8.092;2022-09-12T00:49:02;99532.19;;;14.81;81.56
68859;BME280;55864;49.238;8.092;2022-09-12T00:51:05;99534.00;;;14.88;81.44
68859;BME280;55864;49.238;8.092;2022-09-12T00:53:06;99520.66;;;14.74;81.56
68859;BME280;55864;49.238;8.092;2022-09-12T00:55:11;99520.66;;;14.74;81.33
68859;BME280;55864;49.238;8.092;2022-09-12T00:57:13;99521.97;;;14.78;81.24
68859;BME280;55864;49.238;8.092;2022-09-12T00:59:18;99524.25;;;14.81;81.58
68859;BME280;55864;49.238;8.092;2022-09-12T01:01:21;99522.47;;;14.73;81.88
68859;BME280;55864;49.238;8.092;2022-09-12T01:03:22;99525.28;;;14.72;82.27
68859;BME280;55864;49.238;8.092;2022-09-12T01:05:24;99515.31;;;14.82;82.34
68859;BME280;55864;49.238;8.092;2022-09-12T01:07:25;99519.94;;;14.88;81.78
68859;BME280;55864;49.238;8.092;2022-09-12T01:09:26;99520.47;;;14.83;81.90
68859;BME280;55864;49.238;8.092;2022-09-12T01:11:27;99508.75;;;14.78;82.43
68859;BME280;55864;49.238;8.092;2022-09-12T01:13:28;99514.03;;;14.78;82.24
68859;BME280;55864;49.238;8.092;2022-09-12T01:15:29;99518.63;;;14.84;81.56
68859;BME280;55864;49.238;8.092;2022-09-12T01:17:39;99514.16;;;14.84;81.56
68859;BME280;55864;49.238;8.092;2022-09-12T01:20:07;99514.53;;;14.73;81.41
68859;BME280;55864;49.238;8.092;2022-09-12T01:22:32;99509.72;;;14.77;81.69
68859;BME280;55864;49.238;8.092;2022-09-12T01:24:50;99499.31;;;14.75;81.15
68859;BME280;55864;49.238;8.092;2022-09-12T01:27:15;99501.16;;;14.51;80.81
68859;BME280;55864;49.238;8.092;2022-09-12T01:31:52;99501.16;;;14.51;81.50
68859;BME280;55864;49.238;8.092;2022-09-12T01:34:03;99511.06;;;14.41;82.28
68859;BME280;55864;49.238;8.092;2022-09-12T01:36:22;99497.19;;;14.39;80.72
68859;BME280;55864;49.238;8.092;2022-09-12T01:38:30;99502.50;;;14.31;81.46
68859;BME280;55864;49.238;8.092;2022-09-12T01:40:37;99503.97;;;14.33;82.08
68859;BME280;55864;49.238;8.092;2022-09-12T01:42:44;99495.53;;;14.38;82.20
68859;BME280;55864;49.238;8.092;2022-09-12T01:44:55;99493.06;;;14.28;82.13
68859;BME280;55864;49.238;8.092;2022-09-12T01:47:04;99496.69;;;14.35;82.24
68859;BME280;55864;49.238;8.092;2022-09-12T01:49:12;99493.22;;;14.27;83.15
68859;BME280;55864;49.238;8.092;2022-09-12T01:51:18;99490.25;;;14.30;82.48
68859;BME280;55864;49.238;8.092;2022-09-12T01:53:26;99495.38;;;14.31;82.53
68859;BME280;55864;49.238;8.092;2022-09-12T01:55:31;99493.50;;;14.24;82.20
68859;BME280;55864;49.238;8.092;2022-09-12T01:57:38;99492.84;;;14.22;81.75
68859;BME280;55864;49.238;8.092;2022-09-12T01:59:42;99503.09;;;14.16;82.17
68859;BME280;55864;49.238;8.092;2022-09-12T02:01:47;99492.88;;;14.13;81.66
68859;BME280;55864;49.238;8.092;2022-09-12T02:03:52;99480.97;;;14.26;82.43
68859;BME280;55864;49.238;8.092;2022-09-12T02:05:59;99481.81;;;14.26;82.11
68859;BME280;55864;49.238;8.092;2022-09-12T02:08:06;99475.53;;;14.27;82.60
68859;BME280;55864;49.238;8.092;2022-09-12T02:10:11;99482.47;;;14.04;81.82
68859;BME280;55864;49.238;8.092;2022-09-12T02:12:16;99474.03;;;13.92;82.54
68859;BME280;55864;49.238;8.092;2022-09-12T02:14:21;99478.81;;;14.05;82.73
68859;BME280;55864;49.238;8.092;2022-09-12T02:16:31;99475.97;;;13.82;83.13
68859;BME280;55864;49.238;8.092;2022-09-12T02:18:36;99482.28;;;13.97;83.75
68859;BME280;55864;49.238;8.092;2022-09-12T02:20:40;99478.97;;;13.95;83.03
68859;BME280;55864;49.238;8.092;2022-09-12T02:22:43;99478.78;;;13.97;83.19
68859;BME280;55864;49.238;8.092;2022-09-12T02:24:51;99478.00;;;13.96;82.41
68859;BME280;55864;49.238;8.092;2022-09-12T02:26:55;99477.00;;;13.97;81.87
68859;BME280;55864;49.238;8.092;2022-09-12T02:28:57;99476.31;;;13.95;82.82
68859;BME280;55864;49.238;8.092;2022-09-12T02:31:02;99474.84;;;14.01;83.02
68859;BME280;55864;49.238;8.092;2022-09-12T02:33:06;99474.66;;;14.02;82.39
68859;BME280;55864;49.238;8.092;2022-09-12T02:35:13;99469.53;;;13.93;82.14
68859;BME280;55864;49.238;8.092;2022-09-12T02:37:22;99470.72;;;13.98;82.52
68859;BME280;55864;49.238;8.092;2022-09-12T02:39:24;99468.09;;;13.98;82.44
68859;BME280;55864;49.238;8.092;2022-09-12T02:41:25;99473.69;;;14.03;81.91
68859;BME280;55864;49.238;8.092;2022-09-12T02:43:26;99464.63;;;14.06;82.70
68859;BME280;55864;49.238;8.092;2022-09-12T02:45:26;99466.91;;;14.01;82.54
68859;BME280;55864;49.238;8.092;2022-09-12T02:47:31;99473.03;;;14.01;82.50
68859;BME280;55864;49.238;8.092;2022-09-12T02:49:33;99465.78;;;14.03;82.11
68859;BME280;55864;49.238;8.092;2022-09-12T02:51:34;99470.06;;;13.96;81.89
68859;BME280;55864;49.238;8.092;2022-09-12T02:53:36;99460.66;;;13.94;82.02
68859;BME280;55864;49.238;8.092;2022-09-12T02:55:38;99465.78;;;14.03;81.65
68859;BME280;55864;49.238;8.092;2022-09-12T02:57:39;99462.00;;;14.06;82.76
68859;BME280;55864;49.238;8.092;2022-09-12T02:59:40;99464.63;;;13.98;83.99
68859;BME280;55864;49.238;8.092;2022-09-12T03:01:55;99460.31;;;14.05;83.99
68859;BME280;55864;49.238;8.092;2022-09-12T03:04:16;99464.78;;;14.21;83.14
68859;BME280;55864;49.238;8.092;2022-09-12T03:06:27;99460.81;;;14.08;83.63
68859;BME280;55864;49.238;8.092;2022-09-12T03:08:55;99460.00;;;14.16;83.19
68859;BME280;55864;49.238;8.092;2022-09-12T03:11:24;99462.16;;;14.45;83.45
68859;BME280;55864;49.238;8.092;2022-09-12T03:13:32;99462.81;;;14.39;83.22
68859;BME280;55864;49.238;8.092;2022-09-12T03:15:43;99454.25;;;14.37;83.43
68859;BME280;55864;49.238;8.092;2022-09-12T03:18:00;99456.38;;;14.33;83.70
68859;BME280;55864;49.238;8.092;2022-09-12T03:20:09;99461.03;;;14.39;84.04
68859;BME280;55864;49.238;8.092;2022-09-12T03:22:15;99462.34;;;14.43;83.92
68859;BME280;55864;49.238;8.092;2022-09-12T03:24:24;99460.19;;;14.39;83.24
68859;BME280;55864;49.238;8.092;2022-09-12T03:26:31;99456.88;;;14.45;83.30
68859;BME280;55864;49.238;8.092;2022-09-12T03:28:36;99457.22;;;14.34;83.53
68859;BME280;55864;49.238;8.092;2022-09-12T03:30:39;99457.22;;;14.34;83.97
68859;BME280;55864;49.238;8.092;2022-09-12T03:32:42;99452.44;;;14.29;83.73
68859;BME280;55864;49.238;8.092;2022-09-12T03:34:42;99452.44;;;14.29;83.61
68859;BME280;55864;49.238;8.092;2022-09-12T03:36:43;99449.97;;;14.36;83.61
68859;BME280;55864;49.238;8.092;2022-09-12T03:38:43;99451.78;;;14.43;82.78
68859;BME280;55864;49.238;8.092;2022-09-12T03:40:45;99456.56;;;14.40;82.64
68859;BME280;55864;49.238;8.092;2022-09-12T03:42:46;99456.22;;;14.27;83.02
68859;BME280;55864;49.238;8.092;2022-09-12T03:44:46;99461.81;;;14.24;83.42
68859;BME280;55864;49.238;8.092;2022-09-12T03:46:47;99457.34;;;14.24;83.15
68859;BME280;55864;49.238;8.092;2022-09-12T03:48:47;99456.53;;;14.24;83.41
68859;BME280;55864;49.238;8.092;2022-09-12T03:50:48;99459.34;;;14.22;83.37
68859;BME280;55864;49.238;8.092;2022-09-12T03:52:48;99459.16;;;14.24;83.40
68859;BME280;55864;49.238;8.092;2022-09-12T03:54:49;99449.25;;;14.17;83.43
68859;BME280;55864;49.238;8.092;2022-09-12T03:56:51;99446.78;;;14.16;83.40
68859;BME280;55864;49.238;8.092;2022-09-12T03:58:51;99453.88;;;14.24;83.52
68859;BME280;55864;49.238;8.092;2022-09-12T04:00:52;99446.31;;;14.21;83.91
68859;BME280;55864;49.238;8.092;2022-09-12T04:02:54;99451.25;;;14.15;83.99
68859;BME280;55864;49.238;8.092;2022-09-12T04:04:54;99455.53;;;14.16;83.60
68859;BME280;55864;49.238;8.092;2022-09-12T04:06:55;99446.63;;;14.09;84.08
68859;BME280;55864;49.238;8.092;2022-09-12T04:08:55;99452.59;;;14.11;83.29
68859;BME280;55864;49.238;8.092;2022-09-12T04:11:01;99456.72;;;14.06;83.72
68859;BME280;55864;49.238;8.092;2022-09-12T04:13:03;99452.06;;;14.08;84.12
68859;BME280;55864;49.238;8.092;2022-09-12T04:15:08;99456.53;;;14.07;83.87
68859;BME280;55864;49.238;8.092;2022-09-12T04:17:09;99453.91;;;14.07;83.82
68859;BME280;55864;49.238;8.092;2022-09-12T04:19:10;99453.22;;;14.05;84.12
68859;BME280;55864;49.238;8.092;2022-09-12T04:21:16;99448.91;;;14.04;84.66
68859;BME280;55864;49.238;8.092;2022-09-12T04:23:17;99448.09;;;14.12;84.42
68859;BME280;55864;49.238;8.092;2022-09-12T04:25:17;99448.59;;;14.07;84.17
68859;BME280;55864;49.238;8.092;2022-09-12T04:27:18;99458.34;;;14.07;84.89
68859;BME280;55864;49.238;8.092;2022-09-12T04:29:20;99456.53;;;13.99;84.58
68859;BME280;55864;49.238;8.092;2022-09-12T04:31:20;99456.53;;;14.07;84.26
68859;BME280;55864;49.238;8.092;2022-09-12T04:33:21;99456.19;;;14.02;84.94
68859;BME280;55864;49.238;8.092;2022-09-12T04:35:21;99455.88;;;14.05;84.45
68859;BME280;55864;49.238;8.092;2022-09-12T04:37:31;99454.19;;;14.04;83.75
68859;BME280;55864;49.238;8.092;2022-09-12T04:39:31;99458.16;;;13.92;84.49
68859;BME280;55864;49.238;8.092;2022-09-12T04:41:34;99456.53;;;13.99;84.46
68859;BME280;55864;49.238;8.092;2022-09-12T04:43:35;99449.25;;;14.01;85.07
68859;BME280;55864;49.238;8.092;2022-09-12T04:45:37;99456.19;;;13.94;84.62
68859;BME280;55864;49.238;8.092;2022-09-12T04:47:37;99455.53;;;13.92;84.27
68859;BME280;55864;49.238;8.092;2022-09-12T04:49:38;99453.38;;;13.96;85.09
68859;BME280;55864;49.238;8.092;2022-09-12T04:51:42;99456.50;;;13.91;85.02
68859;BME280;55864;49.238;8.092;2022-09-12T04:53:55;99448.94;;;13.96;84.90
68859;BME280;55864;49.238;8.092;2022-09-12T04:56:00;99448.41;;;13.93;84.56
68859;BME280;55864;49.238;8.092;2022-09-12T04:58:03;99451.88;;;13.93;84.70
68859;BME280;55864;49.238;8.092;2022-09-12T05:00:05;99453.88;;;13.83;84.53
68859;BME280;55864;49.238;8.092;2022-09-12T05:02:07;99454.03;;;13.90;84.73
68859;BME280;55864;49.238;8.092;2022-09-12T05:04:09;99453.38;;;13.88;84.96
68859;BME280;55864;49.238;8.092;2022-09-12T05:06:11;99459.81;;;13.93;84.66
68859;BME280;55864;49.238;8.092;2022-09-12T05:08:12;99458.34;;;13.91;85.11
68859;BME280;55864;49.238;8.092;2022-09-12T05:10:12;99457.66;;;13.97;85.61
68859;BME280;55864;49.238;8.092;2022-09-12T05:12:13;99456.84;;;14.04;84.32
68859;BME280;55864;49.238;8.092;2022-09-12T05:14:13;99461.63;;;14.01;84.86
68859;BME280;55864;49.238;8.092;2022-09-12T05:16:15;99460.00;;;14.00;84.37
68859;BME280;55864;49.238;8.092;2022-09-12T05:18:17;99458.50;;;13.97;84.82
68859;BME280;55864;49.238;8.092;2022-09-12T05:20:18;99456.03;;;13.96;85.54
68859;BME280;55864;49.238;8.092;2022-09-12T05:22:18;99462.81;;;13.98;85.28
68859;BME280;55864;49.238;8.092;2022-09-12T05:24:19;99458.47;;;13.89;85.35
68859;BME280;55864;49.238;8.092;2022-09-12T05:26:20;99459.16;;;13.99;86.28
68859;BME280;55864;49.238;8.092;2022-09-12T05:28:21;99453.53;;;14.02;84.72
68859;BME280;55864;49.238;8.092;2022-09-12T05:30:22;99460.50;;;14.03;85.33
68859;BME280;55864;49.238;8.092;2022-09-12T05:32:23;99461.97;;;14.14;85.23
68859;BME280;55864;49.238;8.092;2022-09-12T05:34:25;99454.88;;;14.14;85.42
68859;BME280;55864;49.238;8.092;2022-09-12T05:36:27;99450.91;;;14.18;85.28
68859;BME280;55864;49.238;8.092;2022-09-12T05:38:28;99454.72;;;14.16;85.36
68859;BME280;55864;49.238;8.092;2022-09-12T05:40:28;99456.88;;;14.21;85.72
68859;BME280;55864;49.238;8.092;2022-09-12T05:42:29;99460.34;;;14.29;85.40
68859;BME280;55864;49.238;8.092;2022-09-12T05:44:29;99463.00;;;14.37;85.12
68859;BME280;55864;49.238;8.092;2022-09-12T05:46:34;99460.84;;;14.41;85.07
68859;BME280;55864;49.238;8.092;2022-09-12T05:48:36;99451.44;;;14.38;85.33
68859;BME280;55864;49.238;8.092;2022-09-12T05:50:38;99457.88;;;14.44;84.91
68859;BME280;55864;49.238;8.092;2022-09-12T05:52:38;99455.06;;;14.45;85.01
68859;BME280;55864;49.238;8.092;2022-09-12T05:54:39;99457.06;;;14.43;84.45
68859;BME280;55864;49.238;8.092;2022-09-12T05:56:41;99456.56;;;14.48;86.32
68859;BME280;55864;49.238;8.092;2022-09-12T05:58:44;99465.97;;;14.58;85.47
68859;BME280;55864;49.238;8.092;2022-09-12T06:00:44;99464.63;;;14.62;85.51
68859;BME280;55864;49.238;8.092;2022-09-12T06:02:50;99468.25;;;14.69;85.58
68859;BME280;55864;49.238;8.092;2022-09-12T06:04:51;99469.56;;;14.73;85.50
68859;BME280;55864;49.238;8.092;2022-09-12T06:06:53;99472.38;;;14.80;85.33
68859;BME280;55864;49.238;8.092;2022-09-12T06:08:56;99468.72;;;14.81;85.03
68859;BME280;55864;49.238;8.092;2022-09-12T06:11:00;99463.25;;;14.90;85.21
68859;BME280;55864;49.238;8.092;2022-09-12T06:13:01;99464.38;;;14.96;84.00
68859;BME280;55864;49.238;8.092;2022-09-12T06:15:01;99467.53;;;14.91;83.87
68859;BME280;55864;49.238;8.092;2022-09-12T06:17:02;99467.88;;;14.96;83.31
68859;BME280;55864;49.238;8.092;2022-09-12T06:19:04;99461.72;;;15.04;83.97
68859;BME280;55864;49.238;8.092;2022-09-12T06:21:06;99462.00;;;15.17;84.89
68859;BME280;55864;49.238;8.092;2022-09-12T06:23:09;99461.66;;;15.20;84.01
68859;BME280;55864;49.238;8.092;2022-09-12T06:25:09;99453.88;;;15.27;84.72
68859;BME280;55864;49.238;8.092;2022-09-12T06:27:10;99457.81;;;15.31;84.30
68859;BME280;55864;49.238;8.092;2022-09-12T06:29:10;99461.59;;;15.36;83.63
68859;BME280;55864;49.238;8.092;2022-09-12T06:31:12;99457.75;;;15.47;83.35
68859;BME280;55864;49.238;8.092;2022-09-12T06:33:13;99463.25;;;15.45;82.65
68859;BME280;55864;49.238;8.092;2022-09-12T06:35:14;99458.72;;;15.54;83.11
68859;BME280;55864;49.238;8.092;2022-09-12T06:37:14;99456.69;;;15.64;82.71
68859;BME280;55864;49.238;8.092;2022-09-12T06:39:17;99453.81;;;15.73;82.60
68859;BME280;55864;49.238;8.092;2022-09-12T06:41:18;99452.28;;;15.79;82.21
68859;BME280;55864;49.238;8.092;2022-09-12T06:43:19;99454.75;;;15.80;82.27
68859;BME280;55864;49.238;8.092;2022-09-12T06:45:19;99458.22;;;15.81;81.37
68859;BME280;55864;49.238;8.092;2022-09-12T06:47:20;99456.69;;;15.86;80.94
68859;BME280;55864;49.238;8.092;2022-09-12T06:49:20;99463.44;;;15.97;80.27
68859;BME280;55864;49.238;8.092;2022-09-12T06:51:21;99456.06;;;16.07;80.41
68859;BME280;55864;49.238;8.092;2022-09-12T06:53:21;99464.56;;;16.02;80.08
68859;BME280;55864;49.238;8.092;2022-09-12T06:55:23;99466.31;;;16.10;80.51
68859;BME280;55864;49.238;8.092;2022-09-12T06:57:23;99461.78;;;16.19;79.49
68859;BME280;55864;49.238;8.092;2022-09-12T06:59:24;99463.34;;;16.28;79.96
68859;BME280;55864;49.238;8.092;2022-09-12T07:01:26;99466.19;;;16.49;78.41
68859;BME280;55864;49.238;8.092;2022-09-12T07:03:27;99462.84;;;16.47;78.72
68859;BME280;55864;49.238;8.092;2022-09-12T07:05:28;99463.47;;;16.57;78.47
68859;BME280;55864;49.238;8.092;2022-09-12T07:07:28;99462.28;;;16.59;77.95
68859;BME280;55864;49.238;8.092;2022-09-12T07:09:28;99465.22;;;16.79;77.46
68859;BME280;55864;49.238;8.092;2022-09-12T07:11:32;99454.53;;;16.72;78.08
68859;BME280;55864;49.238;8.092;2022-09-12T07:13:33;99458.94;;;16.80;77.25
68859;BME280;55864;49.238;8.092;2022-09-12T07:15:34;99452.72;;;16.73;76.49
68859;BME280;55864;49.238;8.092;2022-09-12T07:17:34;99451.59;;;16.97;76.23
68859;BME280;55864;49.238;8.092;2022-09-12T07:19:35;99456.84;;;17.05;75.80
68859;BME280;55864;49.238;8.092;2022-09-12T07:21:35;99447.94;;;17.12;76.09
68859;BME280;55864;49.238;8.092;2022-09-12T07:23:36;99452.53;;;17.18;75.88
68859;BME280;55864;49.238;8.092;2022-09-12T07:25:36;99449.97;;;17.10;76.07
68859;BME280;55864;49.238;8.092;2022-09-12T07:27:38;99450.88;;;17.17;75.75
68859;BME280;55864;49.238;8.092;2022-09-12T07:29:39;99451.69;;;17.18;75.31
68859;BME280;55864;49.238;8.092;2022-09-12T07:31:39;99452.44;;;17.12;75.81
68859;BME280;55864;49.238;8.092;2022-09-12T07:33:41;99461.50;;;17.17;74.28
68859;BME280;55864;49.238;8.092;2022-09-12T07:35:41;99459.66;;;17.18;73.85
68859;BME280;55864;49.238;8.092;2022-09-12T07:37:42;99463.22;;;17.25;74.00
68859;BME280;55864;49.238;8.092;2022-09-12T07:39:42;99454.53;;;17.31;73.98
68859;BME280;55864;49.238;8.092;2022-09-12T07:41:43;99459.94;;;17.37;73.49
68859;BME280;55864;49.238;8.092;2022-09-12T07:43:45;99460.09;;;17.36;73.27
68859;BME280;55864;49.238;8.092;2022-09-12T07:45:45;99460.47;;;17.33;73.27
68859;BME280;55864;49.238;8.092;2022-09-12T07:47:46;99461.94;;;17.50;73.22
68859;BME280;55864;49.238;8.092;2022-09-12T07:49:46;99469.63;;;17.59;72.84
68859;BME280;55864;49.238;8.092;2022-09-12T07:51:46;99465.84;;;17.68;72.38
68859;BME280;55864;49.238;8.092;2022-09-12T07:53:47;99464.66;;;17.71;72.13
68859;BME280;55864;49.238;8.092;2022-09-12T07:55:52;99466.50;;;17.92;71.20
68859;BME280;55864;49.238;8.092;2022-09-12T07:57:52;99471.06;;;17.98;70.61
68859;BME280;55864;49.238;8.092;2022-09-12T07:59:54;99475.88;;;18.09;70.14
68859;BME280;55864;49.238;8.092;2022-09-12T08:01:55;99467.41;;;17.99;69.66
68859;BME280;55864;49.238;8.092;2022-09-12T08:03:57;99466.09;;;18.09;69.73
68859;BME280;55864;49.238;8.092;2022-09-12T08:06:05;99467.28;;;18.28;70.14
68859;BME280;55864;49.238;8.092;2022-09-12T08:08:07;99456.47;;;18.36;69.13
68859;BME280;55864;49.238;8.092;2022-09-12T08:10:08;99462.06;;;18.41;68.20
68859;BME280;55864;49.238;8.092;2022-09-12T08:12:09;99464.44;;;18.50;68.26
68859;BME280;55864;49.238;8.092;2022-09-12T08:14:09;99467.00;;;18.65;67.99
68859;BME280;55864;49.238;8.092;2022-09-12T08:16:12;99461.97;;;18.76;67.72
68859;BME280;55864;49.238;8.092;2022-09-12T08:18:13;99464.56;;;18.70;68.19
68859;BME280;55864;49.238;8.092;2022-09-12T08:20:14;99465.03;;;18.73;68.34
68859;BME280;55864;49.238;8.092;2022-09-12T08:22:14;99468.53;;;18.81;67.91
68859;BME280;55864;49.238;8.092;2022-09-12T08:24:15;99469.06;;;18.97;67.26
68859;BME280;55864;49.238;8.092;2022-09-12T08:26:16;99466.28;;;19.12;67.01
68859;BME280;55864;49.238;8.092;2022-09-12T08:28:16;99461.78;;;19.12;66.79
68859;BME280;55864;49.238;8.092;2022-09-12T08:30:17;99461.91;;;19.32;66.09
68859;BME280;55864;49.238;8.092;2022-09-12T08:32:19;99457.28;;;19.53;64.86
68859;BME280;55864;49.238;8.092;2022-09-12T08:34:19;99458.22;;;19.87;64.41
68859;BME280;55864;49.238;8.092;2022-09-12T08:36:22;99464.41;;;20.07;63.69
68859;BME280;55864;49.238;8.092;2022-09-12T08:38:23;99463.44;;;20.21;62.96
68859;BME280;55864;49.238;8.092;2022-09-12T08:40:23;99466.75;;;20.49;62.34
68859;BME280;55864;49.238;8.092;2022-09-12T08:42:31;99463.63;;;20.78;60.78
68859;BME280;55864;49.238;8.092;2022-09-12T08:44:55;99464.22;;;21.00;60.18
68859;BME280;55864;49.238;8.092;2022-09-12T08:47:20;99466.47;;;21.22;60.17
68859;BME280;55864;49.238;8.092;2022-09-12T08:49:26;99462.78;;;21.23;59.34
68859;BME280;55864;49.238;8.092;2022-09-12T08:51:29;99467.25;;;21.36;58.79
68859;BME280;55864;49.238;8.092;2022-09-12T08:53:31;99463.34;;;21.38;58.51
68859;BME280;55864;49.238;8.092;2022-09-12T08:55:35;99463.44;;;21.57;58.16
68859;BME280;55864;49.238;8.092;2022-09-12T08:57:36;99464.81;;;21.72;58.53
68859;BME280;55864;49.238;8.092;2022-09-12T08:59:39;99464.31;;;21.95;57.47
68859;BME280;55864;49.238;8.092;2022-09-12T09:01:42;99463.03;;;22.04;57.19
68859;BME280;55864;49.238;8.092;2022-09-12T09:04:09;99463.13;;;21.84;57.88
68859;BME280;55864;49.238;8.092;2022-09-12T09:06:23;99462.22;;;22.28;56.77
68859;BME280;55864;49.238;8.092;2022-09-12T09:08:45;99467.88;;;22.44;56.29
68859;BME280;55864;49.238;8.092;2022-09-12T09:10:48;99470.00;;;22.36;55.96
68859;BME280;55864;49.238;8.092;2022-09-12T09:12:56;99468.47;;;22.46;55.65
68859;BME280;55864;49.238;8.092;2022-09-12T09:15:25;99473.78;;;22.53;55.49
68859;BME280;55864;49.238;8.092;2022-09-12T09:17:33;99469.81;;;22.87;55.21
68859;BME280;55864;49.238;8.092;2022-09-12T09:19:43;99468.09;;;22.92;54.54
68859;BME280;55864;49.238;8.092;2022-09-12T09:21:48;99466.13;;;23.24;53.33
68859;BME280;55864;49.238;8.092;2022-09-12T09:23:55;99469.94;;;23.34;53.39
68859;BME280;55864;49.238;8.092;2022-09-12T09:26:00;99463.28;;;23.19;53.92
68859;BME280;55864;49.238;8.092;2022-09-12T09:28:08;99471.38;;;23.37;53.41
68859;BME280;55864;49.238;8.092;2022-09-12T09:30:16;99466.13;;;23.60;53.11
68859;BME280;55864;49.238;8.092;2022-09-12T09:32:25;99471.41;;;23.12;53.65
68859;BME280;55864;49.238;8.092;2022-09-12T09:34:29;99462.84;;;23.58;53.04
68859;BME280;55864;49.238;8.092;2022-09-12T09:36:37;99459.97;;;23.60;53.26
68859;BME280;55864;49.238;8.092;2022-09-12T09:38:45;99459.25;;;23.82;52.54
68859;BME280;55864;49.238;8.092;2022-09-12T09:40:55;99461.50;;;23.67;52.73
68859;BME280;55864;49.238;8.092;2022-09-12T09:43:02;99457.75;;;23.98;51.78
68859;BME280;55864;49.238;8.092;2022-09-12T09:45:12;99459.56;;;24.04;51.20
68859;BME280;55864;49.238;8.092;2022-09-12T09:47:14;99462.25;;;24.34;50.46
68859;BME280;55864;49.238;8.092;2022-09-12T09:49:16;99461.41;;;24.33;50.78
68859;BME280;55864;49.238;8.092;2022-09-12T09:51:25;99459.81;;;24.55;50.32
68859;BME280;55864;49.238;8.092;2022-09-12T09:53:33;99457.88;;;24.21;51.35
68859;BME280;55864;49.238;8.092;2022-09-12T09:55:40;99464.59;;;24.53;50.96
68859;BME280;55864;49.238;8.092;2022-09-12T09:57:44;99456.16;;;24.38;51.11
68859;BME280;55864;49.238;8.092;2022-09-12T09:59:45;99456.09;;;24.68;50.02
68859;BME280;55864;49.238;8.092;2022-09-12T10:01:47;99457.00;;;24.50;50.19
68859;BME280;55864;49.238;8.092;2022-09-12T10:03:49;99457.47;;;24.59;50.33
68859;BME280;55864;49.238;8.092;2022-09-12T10:05:52;99456.94;;;24.15;50.34
68859;BME280;55864;49.238;8.092;2022-09-12T10:07:53;99458.09;;;23.90;51.58
68859;BME280;55864;49.238;8.092;2022-09-12T10:10:06;99450.72;;;24.03;51.43
68859;BME280;55864;49.238;8.092;2022-09-12T10:12:20;99449.16;;;23.96;52.69
68859;BME280;55864;49.238;8.092;2022-09-12T10:14:35;99450.72;;;24.15;52.48
68859;BME280;55864;49.238;8.092;2022-09-12T10:16:48;99443.03;;;23.89;52.26
68859;BME280;55864;49.238;8.092;2022-09-12T10:18:50;99439.03;;;23.80;51.61
68859;BME280;55864;49.238;8.092;2022-09-12T10:20:51;99436.75;;;24.13;50.77
68859;BME280;55864;49.238;8.092;2022-09-12T10:22:51;99438.72;;;24.17;51.07
68859;BME280;55864;49.238;8.092;2022-09-12T10:24:53;99436.69;;;24.54;51.29
68859;BME280;55864;49.238;8.092;2022-09-12T10:27:06;99429.66;;;24.53;50.83
68859;BME280;55864;49.238;8.092;2022-09-12T10:29:14;99429.78;;;24.35;50.71
68859;BME280;55864;49.238;8.092;2022-09-12T10:31:23;99437.00;;;24.35;50.87
68859;BME280;55864;49.238;8.092;2022-09-12T10:33:25;99424.41;;;24.47;50.67
68859;BME280;55864;49.238;8.092;2022-09-12T10:35:28;99423.72;;;24.63;50.49
68859;BME280;55864;49.238;8.092;2022-09-12T10:37:31;99417.88;;;24.66;49.13
68859;BME280;55864;49.238;8.092;2022-09-12T10:39:33;99420.06;;;24.34;48.89
68859;BME280;55864;49.238;8.092;2022-09-12T10:41:35;99422.16;;;24.32;49.53
68859;BME280;55864;49.238;8.092;2022-09-12T10:43:39;99417.91;;;24.01;51.42
68859;BME280;55864;49.238;8.092;2022-09-12T10:45:39;99419.91;;;24.06;50.73
68859;BME280;55864;49.238;8.092;2022-09-12T10:47:40;99416.78;;;24.32;50.55
68859;BME280;55864;49.238;8.092;2022-09-12T10:49:41;99418.19;;;24.23;50.79
68859;BME280;55864;49.238;8.092;2022-09-12T10:51:41;99414.28;;;24.60;50.84
68859;BME280;55864;49.238;8.092;2022-09-12T10:53:43;99417.81;;;24.08;49.37
68859;BME280;55864;49.238;8.092;2022-09-12T10:55:57;99416.25;;;24.00;50.30
68859;BME280;55864;49.238;8.092;2022-09-12T10:58:07;99412.78;;;24.11;50.55